createdAt,value
2022-12-11T00:00:15.945Z,18.80
2022-12-11T00:03:02.398Z,15.02
2022-12-11T00:05:48.537Z,16.35
2022-12-11T00:08:34.753Z,19.58
2022-12-11T00:11:21.702Z,19.02
2022-12-11T00:14:07.901Z,11.57
2022-12-11T00:16:54.162Z,9.23
2022-12-11T00:19:40.205Z,7.45
2022-12-11T00:22:26.221Z,6.57
2022-12-11T00:25:12.578Z,5.38
2022-12-11T00:27:58.638Z,5.40
2022-12-11T00:30:45.201Z,8.98
2022-12-11T00:33:31.315Z,8.77
2022-12-11T00:36:18.947Z,5.95
2022-12-11T00:39:05.229Z,6.30
2022-12-11T00:41:51.573Z,4.30
2022-12-11T00:44:37.678Z,3.13
2022-12-11T00:47:23.878Z,3.42
2022-12-11T00:50:10.123Z,4.07
2022-12-11T00:52:56.183Z,4.30
2022-12-11T00:55:42.677Z,1.88
2022-12-11T00:58:28.793Z,2.38
2022-12-11T01:01:16.890Z,1.80
2022-12-11T01:04:03.623Z,1.60
2022-12-11T01:06:49.872Z,1.70
2022-12-11T01:10:13.105Z,1.27
2022-12-11T01:13:03.088Z,1.08
2022-12-11T01:15:49.234Z,2.00
2022-12-11T01:18:35.460Z,0.88
2022-12-11T01:21:21.343Z,1.08
2022-12-11T01:24:07.535Z,1.30
2022-12-11T01:26:53.929Z,1.67
2022-12-11T01:29:39.974Z,1.40
2022-12-11T01:32:27.282Z,1.58
2022-12-11T01:35:13.839Z,1.20
2022-12-11T01:38:00.187Z,1.65
2022-12-11T01:40:53.416Z,1.00
2022-12-11T01:43:59.399Z,1.00
2022-12-11T01:46:46.008Z,0.98
2022-12-11T01:49:32.373Z,1.35
2022-12-11T01:52:21.563Z,1.00
2022-12-11T01:55:09.755Z,1.42
2022-12-11T01:57:56.362Z,1.35
2022-12-11T02:00:42.943Z,1.10
2022-12-11T02:03:29.179Z,1.38
2022-12-11T02:06:32.147Z,1.02
2022-12-11T02:09:37.780Z,1.00
2022-12-11T02:12:31.957Z,0.90
2022-12-11T02:15:17.997Z,0.88
2022-12-11T02:18:07.174Z,1.25
2022-12-11T02:21:15.150Z,1.30
2022-12-11T02:24:19.677Z,1.02
2022-12-11T02:27:24.490Z,1.02
2022-12-11T02:30:12.394Z,1.13
2022-12-11T02:32:59.040Z,0.90
2022-12-11T02:35:45.964Z,0.93
2022-12-11T02:38:34.080Z,0.55
2022-12-11T02:41:21.541Z,0.40
2022-12-11T02:44:08.415Z,0.80
2022-12-11T02:46:54.920Z,0.77
2022-12-11T02:49:42.772Z,1.42
2022-12-11T02:52:30.292Z,0.90
2022-12-11T02:55:16.843Z,0.85
2022-12-11T02:58:09.373Z,0.50
2022-12-11T03:00:55.917Z,0.95
2022-12-11T03:03:42.759Z,1.20
2022-12-11T03:06:32.253Z,1.13
2022-12-11T03:09:18.176Z,1.50
2022-12-11T03:12:04.433Z,2.88
2022-12-11T03:14:51.122Z,2.10
2022-12-11T03:17:40.309Z,2.55
2022-12-11T03:20:37.194Z,2.25
2022-12-11T03:23:46.884Z,1.95
2022-12-11T03:26:35.331Z,1.45
2022-12-11T03:29:23.419Z,2.03
2022-12-11T03:32:12.855Z,1.83
2022-12-11T03:35:19.055Z,3.83
2022-12-11T03:38:07.098Z,2.75
2022-12-11T03:40:54.773Z,3.40
2022-12-11T03:43:41.531Z,2.15
2022-12-11T03:46:30.240Z,2.17
2022-12-11T03:49:24.637Z,1.20
2022-12-11T03:52:12.538Z,1.23
2022-12-11T03:55:01.901Z,2.50
2022-12-11T03:57:48.538Z,1.70
2022-12-11T04:00:34.896Z,2.97
2022-12-11T04:03:21.153Z,2.03
2022-12-11T04:06:07.508Z,5.15
2022-12-11T04:08:53.576Z,3.92
2022-12-11T04:11:39.715Z,7.38
2022-12-11T04:14:44.558Z,2.03
2022-12-11T04:17:52.657Z,3.78
2022-12-11T04:20:57.398Z,1.50
2022-12-11T04:24:02.308Z,1.85
2022-12-11T04:26:48.269Z,1.90
2022-12-11T04:29:52.767Z,1.10
2022-12-11T04:32:38.826Z,1.33
2022-12-11T04:35:25.016Z,1.20
2022-12-11T04:38:11.288Z,1.88
2022-12-11T04:41:08.202Z,0.50
2022-12-11T04:43:54.112Z,1.30
2022-12-11T04:46:42.154Z,1.48
2022-12-11T04:49:46.955Z,1.75
2022-12-11T04:52:33.069Z,1.00
2022-12-11T04:55:19.564Z,1.08
2022-12-11T04:58:05.439Z,1.25
2022-12-11T05:01:10.575Z,0.50
2022-12-11T05:03:58.842Z,0.50
2022-12-11T05:06:45.101Z,0.50
2022-12-11T05:09:31.257Z,1.60
2022-12-11T05:12:17.401Z,0.60
2022-12-11T05:15:04.223Z,1.77
2022-12-11T05:17:50.364Z,0.63
2022-12-11T05:20:36.686Z,0.77
2022-12-11T05:23:23.009Z,0.60
2022-12-11T05:26:13.477Z,0.63
2022-12-11T05:28:59.510Z,0.63
2022-12-11T05:31:45.709Z,0.60
2022-12-11T05:34:31.862Z,1.23
2022-12-11T05:37:18.201Z,0.50
2022-12-11T05:40:07.166Z,0.50
2022-12-11T05:43:12.102Z,0.50
2022-12-11T05:46:05.169Z,0.60
2022-12-11T05:48:52.371Z,0.70
2022-12-11T05:51:39.774Z,1.08
2022-12-11T05:54:25.702Z,0.70
2022-12-11T05:57:12.043Z,0.85
2022-12-11T06:00:16.800Z,0.70
2022-12-11T06:03:21.320Z,0.93
2022-12-11T06:06:07.901Z,0.50
2022-12-11T06:08:55.089Z,0.73
2022-12-11T06:11:41.004Z,0.85
2022-12-11T06:14:27.179Z,0.80
2022-12-11T06:17:13.580Z,0.80
2022-12-11T06:19:59.583Z,0.90
2022-12-11T06:22:45.932Z,0.63
2022-12-11T06:25:32.285Z,1.40
2022-12-11T06:28:18.233Z,0.60
2022-12-11T06:31:04.895Z,0.60
2022-12-11T06:33:51.009Z,1.73
2022-12-11T06:36:37.157Z,0.70
2022-12-11T06:39:23.365Z,0.68
2022-12-11T06:42:09.622Z,0.77
2022-12-11T06:44:57.450Z,0.60
2022-12-11T06:47:43.727Z,0.60
2022-12-11T06:50:30.005Z,0.70
2022-12-11T06:53:16.599Z,0.63
2022-12-11T06:56:04.113Z,1.15
2022-12-11T06:58:49.927Z,0.70
2022-12-11T07:01:36.250Z,0.60
2022-12-11T07:04:24.995Z,1.55
2022-12-11T07:07:11.555Z,1.08
2022-12-11T07:10:01.499Z,0.60
2022-12-11T07:12:54.828Z,1.45
2022-12-11T07:15:41.093Z,1.23
2022-12-11T07:18:27.987Z,1.02
2022-12-11T07:21:14.479Z,0.80
2022-12-11T07:24:00.722Z,1.23
2022-12-11T07:26:47.172Z,0.60
2022-12-11T07:29:33.016Z,1.30
2022-12-11T07:32:19.298Z,0.65
2022-12-11T07:35:23.751Z,1.25
2022-12-11T07:38:09.889Z,0.77
2022-12-11T07:40:56.379Z,0.68
2022-12-11T07:44:01.400Z,0.88
2022-12-11T07:46:47.726Z,0.60
2022-12-11T07:49:34.453Z,0.90
2022-12-11T07:52:20.617Z,0.60
2022-12-11T07:55:06.883Z,0.85
2022-12-11T07:57:53.086Z,0.95
2022-12-11T08:00:39.639Z,0.70
2022-12-11T08:03:25.788Z,0.75
2022-12-11T08:06:12.187Z,0.65
2022-12-11T08:08:59.977Z,1.17
2022-12-11T08:11:45.715Z,0.80
2022-12-11T08:14:32.221Z,0.63
2022-12-11T08:17:18.316Z,0.70
2022-12-11T08:20:06.833Z,1.02
2022-12-11T08:22:57.547Z,0.98
2022-12-11T08:25:45.009Z,2.10
2022-12-11T08:28:31.686Z,0.60
2022-12-11T08:31:18.181Z,0.70
2022-12-11T08:34:04.012Z,1.20
2022-12-11T08:36:50.286Z,1.30
2022-12-11T08:39:36.381Z,1.02
2022-12-11T08:42:22.590Z,0.93
2022-12-11T08:45:09.825Z,1.45
2022-12-11T08:47:55.932Z,0.63
2022-12-11T08:50:42.293Z,1.00
2022-12-11T08:53:29.516Z,4.22
2022-12-11T08:56:33.904Z,2.05
2022-12-11T08:59:20.042Z,1.98
2022-12-11T09:02:06.351Z,1.70
2022-12-11T09:04:52.416Z,1.77
2022-12-11T09:07:39.441Z,1.85
2022-12-11T09:10:25.394Z,1.05
2022-12-11T09:13:11.367Z,1.13
2022-12-11T09:15:57.615Z,2.47
2022-12-11T09:18:47.124Z,1.60
2022-12-11T09:21:33.831Z,2.15
2022-12-11T09:24:22.577Z,3.38
2022-12-11T09:27:08.523Z,1.33
2022-12-11T09:29:54.735Z,1.02
2022-12-11T09:32:40.915Z,1.02
2022-12-11T09:35:27.808Z,2.13
2022-12-11T09:38:13.809Z,3.65
2022-12-11T09:41:00.751Z,1.10
2022-12-11T09:43:52.971Z,1.35
2022-12-11T09:46:40.380Z,0.80
2022-12-11T09:49:39.992Z,0.60
2022-12-11T09:52:30.532Z,1.50
2022-12-11T09:55:17.722Z,1.35
2022-12-11T09:58:14.492Z,0.55
2022-12-11T10:01:09.873Z,1.55
2022-12-11T10:04:07.018Z,2.45
2022-12-11T10:06:56.288Z,2.30
2022-12-11T10:10:02.670Z,3.25
2022-12-11T10:12:55.211Z,0.88
2022-12-11T10:18:31.272Z,1.23
2022-12-11T10:21:25.075Z,0.80
2022-12-11T10:24:41.868Z,0.88
2022-12-11T10:27:28.634Z,0.98
2022-12-11T10:30:20.051Z,1.88
2022-12-11T10:33:22.197Z,0.70
2022-12-11T10:36:09.958Z,0.50
2022-12-11T10:38:56.241Z,0.82
2022-12-11T10:41:49.622Z,0.98
2022-12-11T10:44:35.886Z,2.50
2022-12-11T10:47:23.413Z,0.90
2022-12-11T10:50:22.152Z,1.80
2022-12-11T10:53:20.088Z,0.90
2022-12-11T10:56:06.498Z,1.13
2022-12-11T10:58:52.422Z,0.80
2022-12-11T11:01:38.960Z,0.80
2022-12-11T11:04:32.616Z,1.95
2022-12-11T11:07:24.284Z,1.15
2022-12-11T11:10:10.147Z,1.20
2022-12-11T11:13:00.378Z,0.63
2022-12-11T11:15:46.825Z,0.90
2022-12-11T11:18:33.370Z,2.08
2022-12-11T11:21:20.827Z,1.05
2022-12-11T11:24:06.686Z,1.48
2022-12-11T11:30:00.730Z,1.90
2022-12-11T11:32:46.585Z,1.48
2022-12-11T11:35:33.221Z,1.50
2022-12-11T11:38:21.320Z,1.00
2022-12-11T11:41:29.686Z,4.70
2022-12-11T11:44:18.104Z,0.93
2022-12-11T11:47:07.319Z,1.58
2022-12-11T11:49:56.372Z,2.58
2022-12-11T11:52:47.733Z,1.95
2022-12-11T11:55:49.433Z,1.70
2022-12-11T11:58:44.817Z,1.05
2022-12-11T12:01:31.406Z,1.80
2022-12-11T12:04:17.261Z,3.15
2022-12-11T12:07:22.637Z,3.97
2022-12-11T12:10:12.874Z,5.93
2022-12-11T12:13:44.746Z,3.33
2022-12-11T12:16:51.582Z,1.77
2022-12-11T12:19:42.522Z,3.35
2022-12-11T12:22:47.049Z,2.88
2022-12-11T12:25:36.759Z,2.22
2022-12-11T12:28:32.138Z,1.67
2022-12-11T12:31:32.773Z,3.15
2022-12-11T12:34:31.328Z,4.63
2022-12-11T12:37:23.724Z,6.25
2022-12-11T12:40:30.731Z,3.65
2022-12-11T12:43:35.382Z,2.78
2022-12-11T12:46:46.597Z,3.17
2022-12-11T12:49:39.143Z,12.95
2022-12-11T12:52:28.164Z,24.13
2022-12-11T12:55:14.827Z,7.40
2022-12-11T12:58:02.480Z,6.50
2022-12-11T13:00:49.087Z,5.00
2022-12-11T13:03:51.070Z,5.22
2022-12-11T13:06:44.643Z,3.43
2022-12-11T13:09:30.663Z,5.47
2022-12-11T13:12:30.214Z,5.00
2022-12-11T13:15:27.754Z,3.67
2022-12-11T13:18:49.118Z,4.80
2022-12-11T13:21:36.957Z,5.43
2022-12-11T13:24:22.790Z,6.55
2022-12-11T13:27:22.467Z,4.55
2022-12-11T13:30:22.787Z,6.25
2022-12-11T13:33:15.812Z,4.43
2022-12-11T13:36:16.700Z,9.75
2022-12-11T13:39:17.131Z,6.93
2022-12-11T13:42:05.569Z,2.30
2022-12-11T13:44:54.480Z,14.10
2022-12-11T13:47:40.998Z,8.20
2022-12-11T13:50:26.933Z,7.88
2022-12-11T13:53:16.809Z,4.22
2022-12-11T13:56:04.935Z,6.03
2022-12-11T13:58:51.031Z,7.47
2022-12-11T14:01:38.393Z,5.38
2022-12-11T14:04:42.878Z,6.35
2022-12-11T14:07:35.305Z,7.75
2022-12-11T14:10:23.263Z,3.67
2022-12-11T14:13:21.813Z,8.55
2022-12-11T14:16:08.329Z,7.95
2022-12-11T14:18:57.036Z,3.08
2022-12-11T14:21:43.220Z,6.10
2022-12-11T14:24:30.217Z,3.75
2022-12-11T14:27:19.943Z,3.30
2022-12-11T14:30:35.687Z,5.95
2022-12-11T14:33:23.088Z,8.35
2022-12-11T14:36:09.825Z,13.45
2022-12-11T14:39:01.605Z,12.18
2022-12-11T14:41:50.376Z,9.68
2022-12-11T14:44:57.581Z,6.68
2022-12-11T14:47:44.259Z,7.78
2022-12-11T14:50:31.197Z,11.52
2022-12-11T14:53:22.946Z,6.10
2022-12-11T14:56:09.604Z,4.03
2022-12-11T14:58:57.060Z,9.70
2022-12-11T15:01:47.423Z,3.88
2022-12-11T15:04:33.987Z,2.22
2022-12-11T15:07:23.572Z,5.43
2022-12-11T15:10:21.932Z,7.05
2022-12-11T15:13:09.260Z,5.03
2022-12-11T15:15:55.609Z,7.38
2022-12-11T15:18:42.799Z,5.47
2022-12-11T15:21:32.258Z,5.55
2022-12-11T15:24:24.084Z,3.85
2022-12-11T15:27:29.087Z,5.43
2022-12-11T15:30:18.113Z,9.05
2022-12-11T15:33:04.130Z,11.10
2022-12-11T15:35:58.105Z,4.78
2022-12-11T15:38:44.339Z,3.92
2022-12-11T15:41:34.828Z,9.40
2022-12-11T15:44:23.713Z,5.60
2022-12-11T15:47:18.597Z,6.63
2022-12-11T15:50:13.505Z,10.85
2022-12-11T15:52:59.645Z,5.60
2022-12-11T15:56:04.304Z,34.55
2022-12-11T15:58:50.182Z,13.73
2022-12-11T16:01:36.638Z,8.98
2022-12-11T16:04:22.828Z,5.07
2022-12-11T16:07:15.152Z,5.38
2022-12-11T16:10:20.332Z,4.65
2022-12-11T16:13:06.310Z,5.50
2022-12-11T16:15:53.832Z,6.88
2022-12-11T16:18:40.013Z,3.05
2022-12-11T16:21:27.119Z,3.33
2022-12-11T16:24:13.849Z,4.50
2022-12-11T16:26:59.951Z,11.93
2022-12-11T16:29:46.179Z,3.80
2022-12-11T16:32:35.015Z,8.77
2022-12-11T16:35:25.224Z,9.00
2022-12-11T16:38:11.643Z,7.47
2022-12-11T16:41:02.349Z,6.63
2022-12-11T16:43:49.597Z,7.80
2022-12-11T16:46:36.597Z,15.55
2022-12-11T16:49:23.580Z,6.65
2022-12-11T16:52:10.981Z,5.32
2022-12-11T16:55:00.137Z,13.98
2022-12-11T16:57:47.351Z,8.45
2022-12-11T17:00:33.707Z,7.43
2022-12-11T17:03:20.434Z,8.20
2022-12-11T17:06:11.700Z,14.32
2022-12-11T17:08:57.840Z,3.70
2022-12-11T17:11:47.203Z,9.35
2022-12-11T17:14:36.567Z,8.48
2022-12-11T17:17:24.323Z,4.35
2022-12-11T17:20:11.058Z,6.32
2022-12-11T17:22:57.687Z,8.05
2022-12-11T17:25:45.680Z,7.78
2022-12-11T17:28:32.389Z,10.20
2022-12-11T17:31:19.292Z,4.82
2022-12-11T17:34:06.160Z,9.30
2022-12-11T17:36:52.065Z,6.15
2022-12-11T17:39:38.122Z,6.70
2022-12-11T17:42:24.323Z,5.05
2022-12-11T17:45:11.067Z,11.50
2022-12-11T17:47:59.728Z,8.38
2022-12-11T17:50:47.233Z,7.65
2022-12-11T17:53:33.478Z,5.57
2022-12-11T17:56:20.684Z,10.38
2022-12-11T17:59:07.064Z,6.90
2022-12-11T18:01:54.735Z,6.80
2022-12-11T18:04:41.958Z,5.90
2022-12-11T18:07:29.091Z,11.85
2022-12-11T18:10:15.402Z,19.20
2022-12-11T18:13:01.733Z,7.38
2022-12-11T18:15:48.707Z,8.55
2022-12-11T18:18:34.880Z,8.13
2022-12-11T18:21:41.520Z,5.68
2022-12-11T18:24:31.818Z,6.93
2022-12-11T18:27:17.635Z,3.03
2022-12-11T18:30:04.496Z,5.78
2022-12-11T18:32:50.867Z,6.82
2022-12-11T18:35:37.251Z,8.75
2022-12-11T18:38:24.074Z,4.75
2022-12-11T18:41:11.812Z,4.35
2022-12-11T18:44:22.659Z,7.68
2022-12-11T18:47:27.692Z,9.25
2022-12-11T18:50:14.633Z,9.27
2022-12-11T18:53:00.579Z,8.32
2022-12-11T18:55:47.662Z,6.47
2022-12-11T18:58:33.446Z,8.15
2022-12-11T19:01:21.051Z,7.20
2022-12-11T19:04:10.814Z,3.88
2022-12-11T19:06:56.901Z,4.03
2022-12-11T19:09:47.738Z,4.85
2022-12-11T19:12:34.726Z,7.45
2022-12-11T19:15:23.767Z,23.20
2022-12-11T19:18:11.295Z,9.23
2022-12-11T19:21:06.745Z,11.13
2022-12-11T19:23:55.033Z,20.10
2022-12-11T19:26:41.269Z,15.27
2022-12-11T19:29:28.641Z,8.98
2022-12-11T19:32:14.808Z,10.43
2022-12-11T19:35:00.896Z,7.78
2022-12-11T19:37:47.291Z,11.15
2022-12-11T19:40:33.424Z,5.05
2022-12-11T19:43:19.786Z,5.05
2022-12-11T19:46:07.005Z,8.07
2022-12-11T19:48:54.216Z,7.07
2022-12-11T19:51:41.164Z,6.07
2022-12-11T19:54:27.520Z,5.03
2022-12-11T19:57:13.793Z,8.93
2022-12-11T20:00:00.308Z,6.88
2022-12-11T20:02:46.593Z,7.90
2022-12-11T20:05:32.639Z,8.75
2022-12-11T20:08:43.351Z,6.05
2022-12-11T20:11:25.569Z,7.80
2022-12-11T20:14:17.987Z,5.22
2022-12-11T20:17:14.526Z,5.32
2022-12-11T20:20:00.930Z,3.88
2022-12-11T20:22:47.328Z,5.68
2022-12-11T20:25:33.602Z,6.88
2022-12-11T20:28:20.015Z,3.45
2022-12-11T20:31:07.419Z,8.27
2022-12-11T20:33:53.975Z,5.90
2022-12-11T20:36:40.213Z,4.40
2022-12-11T20:39:26.770Z,6.32
2022-12-11T20:42:12.842Z,4.28
2022-12-11T20:44:59.167Z,5.38
2022-12-11T20:47:45.371Z,3.63
2022-12-11T20:50:31.507Z,4.72
2022-12-11T20:53:17.896Z,5.55
2022-12-11T20:56:23.322Z,2.25
2022-12-11T20:59:10.784Z,6.50
2022-12-11T21:01:56.671Z,2.75
2022-12-11T21:04:42.967Z,7.55
2022-12-11T21:07:29.344Z,2.67
2022-12-11T21:10:15.760Z,3.67
2022-12-11T21:13:02.309Z,4.28
2022-12-11T21:15:53.022Z,5.25
2022-12-11T21:18:41.721Z,6.75
2022-12-11T21:21:27.970Z,2.83
2022-12-11T21:24:18.734Z,2.03
2022-12-11T21:27:05.048Z,2.90
2022-12-11T21:29:51.650Z,3.25
2022-12-11T21:32:37.797Z,2.20
2022-12-11T21:35:24.183Z,2.35
2022-12-11T21:38:10.125Z,2.90
2022-12-11T21:40:56.557Z,5.68
2022-12-11T21:44:30.980Z,2.65
2022-12-11T21:46:49.682Z,6.20
2022-12-11T21:49:35.657Z,5.03
2022-12-11T21:52:22.169Z,6.00
2022-12-11T21:55:08.440Z,3.08
2022-12-11T21:57:55.325Z,5.90
2022-12-11T22:00:41.379Z,9.52
2022-12-11T22:03:27.510Z,8.63
2022-12-11T22:06:13.856Z,10.82
2022-12-11T22:08:59.912Z,6.10
2022-12-11T22:11:47.111Z,7.75
2022-12-11T22:14:33.058Z,10.63
2022-12-11T22:17:19.376Z,4.55
2022-12-11T22:20:06.294Z,3.13
2022-12-11T22:22:52.669Z,5.22
2022-12-11T22:25:38.839Z,5.97
2022-12-11T22:28:24.918Z,28.42
2022-12-11T22:31:12.354Z,7.25
2022-12-11T22:33:58.450Z,7.57
2022-12-11T22:36:44.551Z,4.38
2022-12-11T22:39:32.501Z,4.97
2022-12-11T22:42:19.007Z,5.68
2022-12-11T22:45:05.348Z,6.85
2022-12-11T22:47:51.325Z,11.55
2022-12-11T22:50:38.558Z,1.90
2022-12-11T22:53:24.754Z,3.30
2022-12-11T22:56:12.415Z,5.57
2022-12-11T22:58:58.840Z,3.75
2022-12-11T23:01:45.190Z,3.95
2022-12-11T23:04:31.288Z,7.55
2022-12-11T23:07:17.575Z,7.93
2022-12-11T23:10:04.328Z,4.68
2022-12-11T23:12:50.387Z,5.38
2022-12-11T23:15:36.530Z,5.95
2022-12-11T23:18:22.809Z,6.20
2022-12-11T23:21:09.907Z,4.55
2022-12-11T23:23:56.999Z,3.72
2022-12-11T23:26:42.936Z,5.45
2022-12-11T23:29:29.201Z,4.13
2022-12-11T23:32:15.279Z,3.20
2022-12-11T23:35:01.605Z,5.45
2022-12-11T23:37:48.479Z,3.03
2022-12-11T23:40:35.151Z,5.50
2022-12-11T23:43:21.023Z,8.85
2022-12-11T23:46:20.646Z,2.28
2022-12-11T23:49:07.039Z,9.02
2022-12-11T23:51:53.269Z,4.15
2022-12-11T23:54:39.421Z,4.72
2022-12-11T23:57:25.711Z,2.53
